createdAt,value
2022-12-17T00:00:04.402Z,75.43
2022-12-17T00:05:26.744Z,67.80
2022-12-17T00:10:46.819Z,73.80
2022-12-17T00:16:11.112Z,69.57
2022-12-17T00:21:32.760Z,81.97
2022-12-17T00:26:53.404Z,88.10
2022-12-17T00:32:14.181Z,85.88
2022-12-17T00:37:35.799Z,81.32
2022-12-17T00:42:56.337Z,87.95
2022-12-17T00:48:16.797Z,88.97
2022-12-17T00:53:35.151Z,87.28
2022-12-17T01:04:20.714Z,83.97
2022-12-17T01:09:43.238Z,76.13
2022-12-17T01:15:04.274Z,71.53
2022-12-17T01:20:25.970Z,74.28
2022-12-17T01:25:48.188Z,68.65
2022-12-17T01:31:11.679Z,60.97
2022-12-17T01:36:31.968Z,60.75
2022-12-17T01:41:53.437Z,61.08
2022-12-17T01:47:13.950Z,56.28
2022-12-17T01:52:35.019Z,58.13
2022-12-17T01:57:57.263Z,58.28
2022-12-17T02:03:18.452Z,59.85
2022-12-17T02:08:49.257Z,55.60
2022-12-17T02:14:22.407Z,60.15
2022-12-17T02:19:54.001Z,57.25
2022-12-17T02:25:20.709Z,58.72
2022-12-17T02:30:43.692Z,59.00
2022-12-17T02:36:12.574Z,60.15
2022-12-17T02:41:35.931Z,60.13
2022-12-17T02:47:11.911Z,61.20
2022-12-17T02:52:36.420Z,63.63
2022-12-17T02:57:56.603Z,61.83
2022-12-17T03:03:18.246Z,81.30
2022-12-17T03:08:38.524Z,76.00
2022-12-17T03:13:59.751Z,78.93
2022-12-17T03:19:22.441Z,75.47
2022-12-17T03:24:43.159Z,74.25
2022-12-17T03:30:03.691Z,77.57
2022-12-17T03:35:25.411Z,83.93
2022-12-17T03:40:45.786Z,77.75
2022-12-17T03:46:10.594Z,72.68
2022-12-17T03:51:32.068Z,77.70
2022-12-17T03:56:52.576Z,80.20
2022-12-17T04:02:12.864Z,75.63
2022-12-17T04:07:34.883Z,69.40
2022-12-17T04:12:54.931Z,66.55
2022-12-17T04:18:15.552Z,67.68
2022-12-17T04:23:37.143Z,70.25
2022-12-17T04:28:57.460Z,68.68
2022-12-17T04:34:17.622Z,64.63
2022-12-17T04:39:39.162Z,75.68
2022-12-17T04:44:59.374Z,60.33
2022-12-17T04:50:19.907Z,64.45
2022-12-17T04:55:41.302Z,57.63
2022-12-17T05:01:01.782Z,56.75
2022-12-17T05:06:31.584Z,57.92
2022-12-17T05:11:53.281Z,53.65
2022-12-17T05:17:13.517Z,49.53
2022-12-17T05:22:33.849Z,48.55
2022-12-17T05:27:56.497Z,51.63
2022-12-17T05:33:18.200Z,48.63
2022-12-17T05:38:51.523Z,48.25
2022-12-17T05:44:14.349Z,46.45
2022-12-17T05:49:34.380Z,50.90
2022-12-17T05:54:54.919Z,44.92
2022-12-17T06:00:16.771Z,51.65
2022-12-17T06:05:36.922Z,43.78
2022-12-17T06:10:57.162Z,48.30
2022-12-17T06:16:18.887Z,47.97
2022-12-17T06:21:40.393Z,45.63
2022-12-17T06:27:00.837Z,44.75
2022-12-17T06:32:23.029Z,45.75
2022-12-17T06:37:43.589Z,46.35
2022-12-17T06:43:11.786Z,44.58
2022-12-17T06:48:33.309Z,42.53
2022-12-17T06:53:53.974Z,43.72
2022-12-17T06:59:14.379Z,44.10
2022-12-17T07:04:36.853Z,47.30
2022-12-17T07:09:57.347Z,49.67
2022-12-17T07:15:35.024Z,57.35
2022-12-17T07:20:56.867Z,55.95
2022-12-17T07:26:17.122Z,53.17
2022-12-17T07:31:37.428Z,52.35
2022-12-17T07:36:59.446Z,49.95
2022-12-17T07:42:19.660Z,49.08
2022-12-17T07:47:40.033Z,50.60
2022-12-17T07:53:10.234Z,45.85
2022-12-17T07:58:34.591Z,44.70
2022-12-17T08:04:12.877Z,47.00
2022-12-17T08:15:47.587Z,41.08
2022-12-17T08:21:08.819Z,47.42
2022-12-17T08:26:42.091Z,47.25
2022-12-17T08:32:06.348Z,46.08
2022-12-17T08:37:26.484Z,43.08
2022-12-17T08:42:48.621Z,44.28
2022-12-17T08:48:08.950Z,43.72
2022-12-17T08:53:34.563Z,51.25
2022-12-17T08:58:59.283Z,47.45
2022-12-17T09:04:20.269Z,43.35
2022-12-17T09:09:40.587Z,42.65
2022-12-17T09:15:17.541Z,47.28
2022-12-17T09:20:39.189Z,46.00
2022-12-17T09:25:59.343Z,48.03
2022-12-17T09:31:20.804Z,46.47
2022-12-17T09:36:41.161Z,46.85
2022-12-17T09:42:10.217Z,42.15
2022-12-17T09:47:50.443Z,45.92
2022-12-17T09:53:11.283Z,51.28
2022-12-17T09:58:38.308Z,45.63
2022-12-17T10:04:07.795Z,50.25
2022-12-17T10:09:31.779Z,49.53
2022-12-17T10:14:52.099Z,45.03
2022-12-17T10:20:14.429Z,52.92
2022-12-17T10:25:36.815Z,43.13
2022-12-17T10:30:57.554Z,42.63
2022-12-17T10:36:18.994Z,44.72
2022-12-17T10:41:42.713Z,43.03
2022-12-17T10:53:06.631Z,41.20
2022-12-17T10:58:32.411Z,40.65
2022-12-17T11:04:05.659Z,39.40
2022-12-17T11:09:41.523Z,33.13
2022-12-17T11:15:09.326Z,33.88
2022-12-17T11:20:41.581Z,34.80
2022-12-17T11:26:11.642Z,35.75
2022-12-17T11:31:53.891Z,32.05
2022-12-17T11:37:20.320Z,27.33
2022-12-17T11:42:49.281Z,29.73
2022-12-17T11:53:48.807Z,33.15
2022-12-17T11:59:14.039Z,33.67
2022-12-17T12:04:52.337Z,27.30
2022-12-17T12:10:18.115Z,25.25
2022-12-17T12:15:48.345Z,31.58
2022-12-17T12:21:29.791Z,24.95
2022-12-17T12:26:59.541Z,29.60
2022-12-17T12:32:42.796Z,27.98
2022-12-17T12:38:03.772Z,23.40
2022-12-17T12:43:33.513Z,24.35
2022-12-17T12:49:02.065Z,25.23
2022-12-17T12:54:46.908Z,26.80
2022-12-17T13:00:04.500Z,20.73
2022-12-17T13:05:35.581Z,24.88
2022-12-17T13:10:38.672Z,26.58
2022-12-17T13:15:47.895Z,23.23
2022-12-17T13:21:01.427Z,22.92
2022-12-17T13:26:23.659Z,27.80
2022-12-17T13:31:28.620Z,27.08
2022-12-17T13:36:40.297Z,23.00
2022-12-17T13:41:43.160Z,24.40
2022-12-17T13:46:48.175Z,24.90
2022-12-17T13:52:09.632Z,23.88
2022-12-17T13:57:16.420Z,35.13
2022-12-17T14:02:26.657Z,22.98
2022-12-17T14:07:34.337Z,25.83
2022-12-17T14:12:37.217Z,26.20
2022-12-17T14:17:46.044Z,27.65
2022-12-17T14:22:52.390Z,27.65
2022-12-17T14:27:57.756Z,30.63
2022-12-17T14:33:00.703Z,27.73
2022-12-17T14:38:05.630Z,28.20
2022-12-17T14:43:08.618Z,31.88
2022-12-17T14:48:16.538Z,28.23
2022-12-17T14:53:28.384Z,28.58
2022-12-17T14:58:32.075Z,30.27
2022-12-17T15:03:40.886Z,31.52
2022-12-17T15:08:47.261Z,31.80
2022-12-17T15:13:54.549Z,31.75
2022-12-17T15:19:00.544Z,35.83
2022-12-17T15:24:05.253Z,48.70
2022-12-17T15:29:07.982Z,31.75
2022-12-17T15:34:12.277Z,30.55
2022-12-17T15:39:17.129Z,24.95
2022-12-17T15:44:19.880Z,27.67
2022-12-17T15:49:22.795Z,27.60
2022-12-17T15:54:26.958Z,27.98
2022-12-17T15:59:29.899Z,28.98
2022-12-17T16:04:32.664Z,30.20
2022-12-17T16:09:36.768Z,27.88
2022-12-17T16:14:39.684Z,24.70
2022-12-17T16:19:42.675Z,24.45
2022-12-17T16:24:47.232Z,25.35
2022-12-17T16:29:50.306Z,29.27
2022-12-17T16:34:53.230Z,22.33
2022-12-17T16:40:00.143Z,28.52
2022-12-17T16:45:03.359Z,20.20
2022-12-17T16:50:06.936Z,17.20
2022-12-17T16:55:11.278Z,21.77
2022-12-17T17:00:15.073Z,20.88
2022-12-17T17:05:17.864Z,19.95
2022-12-17T17:10:22.119Z,19.38
2022-12-17T17:15:24.923Z,20.48
2022-12-17T17:20:27.748Z,23.60
2022-12-17T17:25:54.205Z,17.73
2022-12-17T17:30:59.954Z,21.27
2022-12-17T17:36:07.135Z,18.30
2022-12-17T17:41:14.088Z,24.95
2022-12-17T17:46:19.852Z,25.08
2022-12-17T17:51:52.065Z,18.90
2022-12-17T17:56:49.453Z,22.90
2022-12-17T18:01:52.924Z,19.92
2022-12-17T18:12:38.560Z,18.23
2022-12-17T18:17:41.439Z,25.00
2022-12-17T18:22:45.849Z,23.95
2022-12-17T18:27:52.911Z,27.20
2022-12-17T18:32:56.103Z,22.23
2022-12-17T18:38:00.580Z,28.65
2022-12-17T18:43:22.232Z,23.95
2022-12-17T18:48:25.319Z,26.70
2022-12-17T18:53:28.257Z,29.30
2022-12-17T18:58:32.476Z,28.95
2022-12-17T19:03:35.313Z,26.55
2022-12-17T19:08:40.535Z,31.42
2022-12-17T19:13:53.304Z,34.17
2022-12-17T19:18:58.238Z,35.17
2022-12-17T19:24:02.901Z,42.33
2022-12-17T19:29:08.472Z,39.88
2022-12-17T19:34:13.187Z,41.00
2022-12-17T19:39:17.919Z,35.92
2022-12-17T19:44:22.193Z,45.67
2022-12-17T19:49:24.995Z,40.75
2022-12-17T19:54:27.780Z,40.53
2022-12-17T19:59:32.003Z,44.78
2022-12-17T20:04:34.978Z,39.67
2022-12-17T20:09:37.799Z,35.03
2022-12-17T20:14:42.008Z,46.03
2022-12-17T20:19:44.938Z,39.80
2022-12-17T20:24:47.740Z,31.50
2022-12-17T20:29:51.956Z,32.85
2022-12-17T20:34:54.892Z,30.85
2022-12-17T20:39:58.008Z,47.63
2022-12-17T20:45:02.328Z,32.03
2022-12-17T20:50:05.929Z,31.15
2022-12-17T20:55:09.282Z,27.80
2022-12-17T21:00:14.209Z,28.45
2022-12-17T21:05:17.998Z,27.63
2022-12-17T21:10:20.868Z,32.15
2022-12-17T21:15:48.877Z,29.52
2022-12-17T21:20:59.201Z,32.17
2022-12-17T21:26:08.595Z,30.88
2022-12-17T21:31:19.361Z,48.67
2022-12-17T21:36:26.103Z,50.45
2022-12-17T21:41:30.758Z,73.40
2022-12-17T21:46:35.518Z,31.05
2022-12-17T21:51:38.983Z,32.95
2022-12-17T21:56:41.970Z,30.45
2022-12-17T22:01:49.164Z,25.92
2022-12-17T22:07:17.387Z,26.07
2022-12-17T22:12:39.427Z,31.07
2022-12-17T22:17:44.981Z,30.10
2022-12-17T22:22:49.150Z,28.48
2022-12-17T22:27:52.100Z,26.77
2022-12-17T22:33:02.754Z,26.80
2022-12-17T22:40:37.943Z,25.73
2022-12-17T22:44:44.079Z,33.40
2022-12-17T22:49:03.226Z,26.45
2022-12-17T22:54:07.363Z,26.15
2022-12-17T22:59:15.928Z,25.77
2022-12-17T23:04:21.294Z,24.85
2022-12-17T23:09:24.152Z,27.75
2022-12-17T23:14:27.036Z,26.17
2022-12-17T23:19:31.235Z,24.50
2022-12-17T23:24:36.206Z,25.48
2022-12-17T23:29:38.974Z,21.85
2022-12-17T23:34:43.640Z,27.33
2022-12-17T23:39:46.509Z,25.67
2022-12-17T23:44:49.299Z,26.85
2022-12-17T23:49:53.644Z,28.92
2022-12-17T23:54:56.478Z,25.90
2022-12-17T23:59:59.466Z,28.15
